Terminal Aerodrome Forecast
Issued by NWS

Home | Current Version | Previous Version | Text Only | Print | Product List | Glossary On
Versions: 1 2 3 4 5 6 7 8 9 10 11 12 13 14 15 16 17 18
000
FTAK31 PAFA 250201 AAA
TAFAOT
TAF AMD
PAOT 250201Z 2502/2524 14005KT P6SM BKN040 OVC070
      TEMPO 2502/2504 4SM BR
     FM250700 21012KT 2SM -SN BR BKN007 OVC015
     FM251600 14020KT 1SM -SN BR BKN003 OVC007
     FM252000 14028G35KT 1/4SM SN FG BLSN OVC004=

USA.gov is the U.S. government's official web portal to all federal, state and local government web resources and services.